createdAt,value
2023-05-23T00:01:46.898Z,17.93
2023-05-23T00:04:18.916Z,21.90
2023-05-23T00:06:50.915Z,18.80
2023-05-23T00:09:23.420Z,19.80
2023-05-23T00:11:53.079Z,19.40
2023-05-23T00:14:23.801Z,21.00
2023-05-23T00:16:53.394Z,26.50
2023-05-23T00:19:23.129Z,25.00
2023-05-23T00:21:53.938Z,26.40
2023-05-23T00:24:26.048Z,27.77
2023-05-23T00:26:55.599Z,23.60
2023-05-23T00:29:25.101Z,20.63
2023-05-23T00:31:54.831Z,23.40
2023-05-23T00:34:24.348Z,21.00
2023-05-23T00:36:54.412Z,21.07
2023-05-23T00:39:26.626Z,21.60
2023-05-23T00:41:56.499Z,31.30
2023-05-23T00:44:26.097Z,20.67
2023-05-23T00:46:58.241Z,30.47
2023-05-23T00:49:28.389Z,23.43
2023-05-23T00:51:58.054Z,25.50
2023-05-23T00:54:32.095Z,22.90
2023-05-23T00:57:01.774Z,26.80
2023-05-23T00:59:31.524Z,21.63
2023-05-23T01:02:02.541Z,27.20
2023-05-23T01:04:34.506Z,34.40
2023-05-23T01:07:04.830Z,23.50
2023-05-23T01:09:37.063Z,47.13
2023-05-23T01:12:16.272Z,36.30
2023-05-23T01:14:49.408Z,31.50
2023-05-23T01:17:24.491Z,34.90
2023-05-23T01:20:13.235Z,29.83
2023-05-23T01:23:00.512Z,29.60
2023-05-23T01:25:42.835Z,29.87
2023-05-23T01:28:18.291Z,28.73
2023-05-23T01:30:49.106Z,26.27
2023-05-23T01:33:20.082Z,27.10
2023-05-23T01:35:49.650Z,26.77
2023-05-23T01:38:19.273Z,27.33
2023-05-23T01:40:48.805Z,26.10
2023-05-23T01:43:21.082Z,25.10
2023-05-23T01:45:51.164Z,24.20
2023-05-23T01:48:21.278Z,24.60
2023-05-23T01:50:50.924Z,24.43
2023-05-23T01:53:24.908Z,22.83
2023-05-23T01:55:55.687Z,24.10
2023-05-23T01:58:27.953Z,24.43
2023-05-23T02:00:57.585Z,22.40
2023-05-23T02:03:27.257Z,23.30
2023-05-23T02:05:56.868Z,23.50
2023-05-23T02:08:26.383Z,23.87
2023-05-23T02:10:55.972Z,24.90
2023-05-23T02:13:28.121Z,24.10
2023-05-23T02:15:57.680Z,26.63
2023-05-23T02:18:29.578Z,27.40
2023-05-23T02:20:59.263Z,29.80
2023-05-23T02:23:28.821Z,32.00
2023-05-23T02:25:58.383Z,33.03
2023-05-23T02:28:30.470Z,38.47
2023-05-23T02:31:00.246Z,39.53
2023-05-23T02:33:29.885Z,44.90
2023-05-23T02:35:59.403Z,45.80
2023-05-23T02:38:31.038Z,46.17
2023-05-23T02:41:00.984Z,46.30
2023-05-23T02:43:33.150Z,44.90
2023-05-23T02:46:02.795Z,47.10
2023-05-23T02:48:32.321Z,46.07
2023-05-23T02:51:02.012Z,46.63
2023-05-23T02:53:32.089Z,53.57
2023-05-23T02:56:01.807Z,51.03
2023-05-23T02:58:35.856Z,54.13
2023-05-23T03:01:07.595Z,48.53
2023-05-23T03:03:37.845Z,50.70
2023-05-23T03:06:07.840Z,52.17
2023-05-23T03:08:37.375Z,54.47
2023-05-23T03:11:06.933Z,54.70
2023-05-23T03:13:39.066Z,54.87
2023-05-23T03:16:09.092Z,54.70
2023-05-23T03:18:38.643Z,49.80
2023-05-23T03:21:08.245Z,53.90
2023-05-23T03:23:37.808Z,48.73
2023-05-23T03:26:07.370Z,50.67
2023-05-23T03:28:39.451Z,50.70
2023-05-23T03:31:09.091Z,46.93
2023-05-23T03:33:40.347Z,46.70
2023-05-23T03:36:10.391Z,47.67
2023-05-23T03:38:39.910Z,46.43
2023-05-23T03:41:09.765Z,47.90
2023-05-23T03:43:41.956Z,43.10
2023-05-23T03:46:11.731Z,45.77
2023-05-23T03:48:41.321Z,44.80
2023-05-23T03:51:11.293Z,41.73
2023-05-23T03:53:41.072Z,43.97
2023-05-23T03:56:10.635Z,43.10
2023-05-23T03:58:42.739Z,41.27
2023-05-23T04:01:12.311Z,42.53
2023-05-23T04:03:42.409Z,41.07
2023-05-23T04:06:13.669Z,41.70
2023-05-23T04:08:45.381Z,41.57
2023-05-23T04:11:14.916Z,41.43
2023-05-23T04:13:47.332Z,41.10
2023-05-23T04:16:17.262Z,40.20
2023-05-23T04:18:47.687Z,41.10
2023-05-23T04:21:17.270Z,40.23
2023-05-23T04:23:47.385Z,39.30
2023-05-23T04:26:16.974Z,38.63
2023-05-23T04:28:50.394Z,42.13
2023-05-23T04:31:19.930Z,37.60
2023-05-23T04:33:49.508Z,39.77
2023-05-23T04:36:19.288Z,39.30
2023-05-23T04:38:48.881Z,40.97
2023-05-23T04:41:23.800Z,37.90
2023-05-23T04:43:58.607Z,40.77
2023-05-23T04:46:28.499Z,39.43
2023-05-23T04:48:59.110Z,39.57
2023-05-23T04:51:28.664Z,40.10
2023-05-23T04:53:58.240Z,41.60
2023-05-23T04:56:29.183Z,38.47
2023-05-23T04:59:01.401Z,40.63
2023-05-23T05:01:31.579Z,39.00
2023-05-23T05:04:01.186Z,39.67
2023-05-23T05:06:31.186Z,38.33
2023-05-23T05:09:00.756Z,41.80
2023-05-23T05:11:30.338Z,40.53
2023-05-23T05:14:02.532Z,41.83
2023-05-23T05:16:32.190Z,41.33
2023-05-23T05:19:01.977Z,42.20
2023-05-23T05:21:31.637Z,41.80
2023-05-23T05:24:01.809Z,43.10
2023-05-23T05:26:31.406Z,42.90
2023-05-23T05:29:03.527Z,43.50
2023-05-23T05:31:33.100Z,55.47
2023-05-23T05:34:02.796Z,45.13
2023-05-23T05:36:32.710Z,52.20
2023-05-23T05:39:02.282Z,43.00
2023-05-23T05:41:31.902Z,43.73
2023-05-23T05:44:03.984Z,40.60
2023-05-23T05:46:33.536Z,40.50
2023-05-23T05:49:03.189Z,44.10
2023-05-23T05:51:32.803Z,46.20
2023-05-23T05:54:02.379Z,44.80
2023-05-23T05:56:32.433Z,44.27
2023-05-23T05:59:04.617Z,45.37
2023-05-23T06:01:34.953Z,44.57
2023-05-23T06:04:04.717Z,46.80
2023-05-23T06:06:34.826Z,44.33
2023-05-23T06:09:04.377Z,45.23
2023-05-23T06:11:34.593Z,48.30
2023-05-23T06:14:07.399Z,43.20
2023-05-23T06:16:37.500Z,43.37
2023-05-23T06:19:07.386Z,41.00
2023-05-23T06:21:36.989Z,44.00
2023-05-23T06:24:06.635Z,45.07
2023-05-23T06:26:37.808Z,46.07
2023-05-23T06:29:09.940Z,44.20
2023-05-23T06:31:39.694Z,41.37
2023-05-23T06:34:09.336Z,44.47
2023-05-23T06:36:38.900Z,45.63
2023-05-23T06:39:10.125Z,46.80
2023-05-23T06:41:39.726Z,44.03
2023-05-23T06:44:11.839Z,43.37
2023-05-23T06:46:41.344Z,43.00
2023-05-23T06:49:15.263Z,42.60
2023-05-23T06:51:45.111Z,39.87
2023-05-23T06:54:14.778Z,40.30
2023-05-23T06:56:44.427Z,38.57
2023-05-23T06:59:16.573Z,34.57
2023-05-23T07:01:46.183Z,32.37
2023-05-23T07:04:15.814Z,31.20
2023-05-23T07:06:45.386Z,29.07
2023-05-23T07:09:14.909Z,27.37
2023-05-23T07:11:44.513Z,25.90
2023-05-23T07:14:16.787Z,24.23
2023-05-23T07:16:46.422Z,21.33
2023-05-23T07:19:16.613Z,20.67
2023-05-23T07:21:46.192Z,20.37
2023-05-23T07:24:15.758Z,18.40
2023-05-23T07:26:45.259Z,18.80
2023-05-23T07:29:17.442Z,17.33
2023-05-23T07:31:46.973Z,17.30
2023-05-23T07:34:16.537Z,16.30
2023-05-23T07:36:46.127Z,13.83
2023-05-23T07:39:15.712Z,14.40
2023-05-23T07:41:45.339Z,13.90
2023-05-23T07:44:17.551Z,13.67
2023-05-23T07:46:47.146Z,13.03
2023-05-23T07:49:16.784Z,12.47
2023-05-23T07:51:46.380Z,11.90
2023-05-23T07:54:16.816Z,11.80
2023-05-23T07:56:46.553Z,11.90
2023-05-23T07:59:18.765Z,10.97
2023-05-23T08:01:50.701Z,11.93
2023-05-23T08:04:20.616Z,31.53
2023-05-23T08:07:04.418Z,10.83
2023-05-23T08:09:35.317Z,9.90
2023-05-23T08:12:04.879Z,9.90
2023-05-23T08:14:49.741Z,10.33
2023-05-23T08:17:20.787Z,8.70
2023-05-23T08:19:50.494Z,8.77
2023-05-23T08:22:20.047Z,8.10
2023-05-23T08:24:49.617Z,6.60
2023-05-23T08:27:19.177Z,6.70
2023-05-23T08:29:52.888Z,6.90
2023-05-23T08:32:22.601Z,6.90
2023-05-23T08:34:52.364Z,6.23
2023-05-23T08:37:21.976Z,6.30
2023-05-23T08:39:52.315Z,5.10
2023-05-23T08:42:21.957Z,5.60
2023-05-23T08:44:55.028Z,6.53
2023-05-23T08:47:24.618Z,6.73
2023-05-23T08:49:55.778Z,7.40
2023-05-23T08:52:28.205Z,7.17
2023-05-23T08:54:57.857Z,8.30
2023-05-23T08:57:28.952Z,8.27
2023-05-23T09:00:01.193Z,9.23
2023-05-23T09:02:30.909Z,8.73
2023-05-23T09:05:00.588Z,9.17
2023-05-23T09:07:31.907Z,12.93
2023-05-23T09:10:01.484Z,10.03
2023-05-23T09:12:31.063Z,10.77
2023-05-23T09:15:03.454Z,14.40
2023-05-23T09:17:34.312Z,15.47
2023-05-23T09:20:05.084Z,11.20
2023-05-23T09:22:34.651Z,11.70
2023-05-23T09:25:04.977Z,11.53
2023-05-23T09:27:34.582Z,14.47
2023-05-23T09:30:11.712Z,11.33
2023-05-23T09:32:42.535Z,11.40
2023-05-23T09:35:14.580Z,13.27
2023-05-23T09:37:47.092Z,7.70
2023-05-23T09:40:18.164Z,7.93
2023-05-23T09:42:49.579Z,10.27
2023-05-23T09:45:21.705Z,9.30
2023-05-23T09:47:54.775Z,7.80
2023-05-23T09:50:27.260Z,5.77
2023-05-23T09:52:56.778Z,8.40
2023-05-23T09:55:26.659Z,11.20
2023-05-23T09:57:57.838Z,8.43
2023-05-23T10:00:30.231Z,4.80
2023-05-23T10:03:11.083Z,6.30
2023-05-23T10:05:44.710Z,4.40
2023-05-23T10:08:18.012Z,5.20
2023-05-23T10:11:17.454Z,15.60
2023-05-23T10:13:48.577Z,23.00
2023-05-23T10:16:22.669Z,5.30
2023-05-23T10:18:57.879Z,5.67
2023-05-23T10:21:28.615Z,8.20
2023-05-23T10:23:58.279Z,4.73
2023-05-23T10:26:27.916Z,10.30
2023-05-23T10:28:58.549Z,5.60
2023-05-23T10:31:31.357Z,8.67
2023-05-23T10:34:06.128Z,4.90
2023-05-23T10:36:39.261Z,4.27
2023-05-23T10:39:13.451Z,7.33
2023-05-23T10:41:47.950Z,4.70
2023-05-23T10:44:21.462Z,5.00
2023-05-23T10:46:58.990Z,3.70
2023-05-23T10:49:40.867Z,4.10
2023-05-23T10:52:11.553Z,3.90
2023-05-23T10:54:45.813Z,7.83
2023-05-23T10:57:19.767Z,4.70
2023-05-23T10:59:49.758Z,3.47
2023-05-23T11:02:23.036Z,3.70
2023-05-23T11:05:21.639Z,10.53
2023-05-23T11:08:09.433Z,3.60
2023-05-23T11:10:57.333Z,3.70
2023-05-23T11:13:27.279Z,5.50
2023-05-23T11:15:56.935Z,14.53
2023-05-23T11:18:31.341Z,4.33
2023-05-23T11:21:01.677Z,5.40
2023-05-23T11:23:43.526Z,4.03
2023-05-23T11:26:33.991Z,3.97
2023-05-23T11:29:04.285Z,4.20
2023-05-23T11:31:33.943Z,3.50
2023-05-23T11:34:06.235Z,3.40
2023-05-23T11:36:36.144Z,9.57
2023-05-23T11:39:06.307Z,3.53
2023-05-23T11:41:38.177Z,3.63
2023-05-23T11:44:14.349Z,6.93
2023-05-23T11:46:43.985Z,4.90
2023-05-23T11:49:16.425Z,3.67
2023-05-23T11:51:46.070Z,5.50
2023-05-23T11:54:15.806Z,3.83
2023-05-23T11:56:45.380Z,4.60
2023-05-23T11:59:14.948Z,4.80
2023-05-23T12:01:44.686Z,3.20
2023-05-23T12:04:16.923Z,3.50
2023-05-23T12:06:49.717Z,3.67
2023-05-23T12:09:19.824Z,6.10
2023-05-23T12:11:49.410Z,9.73
2023-05-23T12:14:20.411Z,5.00
2023-05-23T12:16:50.132Z,3.47
2023-05-23T12:19:22.713Z,8.00
2023-05-23T12:21:52.566Z,5.60
2023-05-23T12:24:23.243Z,3.50
2023-05-23T12:26:53.764Z,7.07
2023-05-23T12:29:24.278Z,2.83
2023-05-23T12:31:54.369Z,7.73
2023-05-23T12:34:26.684Z,4.37
2023-05-23T12:37:10.465Z,6.30
2023-05-23T12:39:47.936Z,5.90
2023-05-23T12:42:17.536Z,6.73
2023-05-23T12:44:48.784Z,3.33
2023-05-23T12:47:18.445Z,6.10
2023-05-23T12:49:50.690Z,3.50
2023-05-23T12:52:20.249Z,3.83
2023-05-23T12:54:49.813Z,8.77
2023-05-23T12:57:19.390Z,4.50
2023-05-23T12:59:48.984Z,7.80
2023-05-23T13:02:18.559Z,3.73
2023-05-23T13:04:50.814Z,3.70
2023-05-23T13:07:20.416Z,9.50
2023-05-23T13:09:49.942Z,5.57
2023-05-23T13:12:19.568Z,3.57
2023-05-23T13:14:49.298Z,3.60
2023-05-23T13:17:18.853Z,7.30
2023-05-23T13:19:51.637Z,5.67
2023-05-23T13:22:21.208Z,6.30
2023-05-23T13:24:50.862Z,4.40
2023-05-23T13:27:21.644Z,5.40
2023-05-23T13:29:51.239Z,4.10
2023-05-23T13:32:20.888Z,4.60
2023-05-23T13:34:53.077Z,3.70
2023-05-23T13:37:22.653Z,4.50
2023-05-23T13:39:52.265Z,3.07
2023-05-23T13:42:21.848Z,3.53
2023-05-23T13:44:51.431Z,3.70
2023-05-23T13:47:21.008Z,2.93
2023-05-23T13:49:53.392Z,4.30
2023-05-23T13:52:22.981Z,4.93
2023-05-23T13:54:52.560Z,3.50
2023-05-23T13:57:22.452Z,3.87
2023-05-23T13:59:52.041Z,3.43
2023-05-23T14:02:21.830Z,3.47
2023-05-23T14:04:54.177Z,4.50
2023-05-23T14:07:23.786Z,2.97
2023-05-23T14:09:53.364Z,3.70
2023-05-23T14:12:22.946Z,2.87
2023-05-23T14:14:52.563Z,3.43
2023-05-23T14:17:23.503Z,2.70
2023-05-23T14:19:55.741Z,3.83
2023-05-23T14:22:25.498Z,2.90
2023-05-23T14:24:55.007Z,4.03
2023-05-23T14:27:24.558Z,2.87
2023-05-23T14:29:54.071Z,3.23
2023-05-23T14:32:25.096Z,3.30
2023-05-23T14:34:57.269Z,3.23
2023-05-23T14:37:26.883Z,3.20
2023-05-23T14:39:56.488Z,4.70
2023-05-23T14:42:26.667Z,3.70
2023-05-23T14:44:56.740Z,3.83
2023-05-23T14:47:26.669Z,3.10
2023-05-23T14:49:58.808Z,8.33
2023-05-23T14:52:28.410Z,3.60
2023-05-23T14:54:58.000Z,3.13
2023-05-23T14:57:27.641Z,5.03
2023-05-23T14:59:57.407Z,10.17
2023-05-23T15:02:27.030Z,9.10
2023-05-23T15:04:59.237Z,3.47
2023-05-23T15:07:28.856Z,11.13
2023-05-23T15:09:58.409Z,6.37
2023-05-23T15:12:27.969Z,3.40
2023-05-23T15:15:03.408Z,3.57
2023-05-23T15:17:33.148Z,3.90
2023-05-23T15:20:07.252Z,3.37
2023-05-23T15:22:39.743Z,3.30
2023-05-23T15:25:11.024Z,16.63
2023-05-23T15:27:40.684Z,7.10
2023-05-23T15:30:11.842Z,8.30
2023-05-23T15:32:41.649Z,4.70
2023-05-23T15:35:18.897Z,4.03
2023-05-23T15:37:49.268Z,5.87
2023-05-23T15:40:18.834Z,3.70
2023-05-23T15:42:48.337Z,6.13
2023-05-23T15:45:18.419Z,3.00
2023-05-23T15:47:47.981Z,3.00
2023-05-23T15:50:20.300Z,5.30
2023-05-23T15:52:49.870Z,4.30
2023-05-23T15:55:19.631Z,10.43
2023-05-23T15:57:49.205Z,9.20
2023-05-23T16:00:19.271Z,5.77
2023-05-23T16:02:48.845Z,9.13
2023-05-23T16:05:20.968Z,3.03
2023-05-23T16:07:50.489Z,4.33
2023-05-23T16:10:20.404Z,3.67
2023-05-23T16:12:49.947Z,15.33
2023-05-23T16:15:19.614Z,11.50
2023-05-23T16:17:49.177Z,2.93
2023-05-23T16:20:24.470Z,3.87
2023-05-23T16:22:54.173Z,3.20
2023-05-23T16:25:24.798Z,3.97
2023-05-23T16:27:58.651Z,3.97
2023-05-23T16:30:32.937Z,4.80
2023-05-23T16:33:02.597Z,6.43
2023-05-23T16:35:34.759Z,3.43
2023-05-23T16:38:04.341Z,3.70
2023-05-23T16:40:33.957Z,3.63
2023-05-23T16:43:04.042Z,12.77
2023-05-23T16:45:33.595Z,8.67
2023-05-23T16:48:03.696Z,5.63
2023-05-23T16:50:36.026Z,9.70
2023-05-23T16:53:05.576Z,2.73
2023-05-23T16:55:35.147Z,4.97
2023-05-23T16:58:04.712Z,4.40
2023-05-23T17:00:35.551Z,2.87
2023-05-23T17:03:06.113Z,3.43
2023-05-23T17:05:40.477Z,4.17
2023-05-23T17:08:12.300Z,3.23
2023-05-23T17:11:00.176Z,4.20
2023-05-23T17:13:32.596Z,7.33
2023-05-23T17:16:05.395Z,6.23
2023-05-23T17:18:41.964Z,4.80
2023-05-23T17:21:17.164Z,3.83
2023-05-23T17:23:53.151Z,5.27
2023-05-23T17:26:41.554Z,5.13
2023-05-23T17:29:15.123Z,5.80
2023-05-23T17:31:46.163Z,6.97
2023-05-23T17:34:23.208Z,3.13
2023-05-23T17:36:57.790Z,3.70
2023-05-23T17:39:35.370Z,7.87
2023-05-23T17:42:11.539Z,6.43
2023-05-23T17:44:41.291Z,3.07
2023-05-23T17:47:14.721Z,5.60
2023-05-23T17:49:44.589Z,4.17
2023-05-23T17:52:16.914Z,3.17
2023-05-23T17:54:46.432Z,3.80
2023-05-23T17:57:16.332Z,3.63
2023-05-23T17:59:46.098Z,4.10
2023-05-23T18:02:15.651Z,2.90
2023-05-23T18:04:45.540Z,2.43
2023-05-23T18:07:19.335Z,3.50
2023-05-23T18:09:48.995Z,3.40
2023-05-23T18:12:19.233Z,4.80
2023-05-23T18:14:49.604Z,4.13
2023-05-23T18:17:19.750Z,2.90
2023-05-23T18:19:49.655Z,3.47
2023-05-23T18:22:21.808Z,3.70
2023-05-23T18:24:51.373Z,4.80
2023-05-23T18:27:20.970Z,4.60
2023-05-23T18:29:50.557Z,3.30
2023-05-23T18:32:20.373Z,4.50
2023-05-23T18:34:49.895Z,6.27
2023-05-23T18:37:22.080Z,3.50
2023-05-23T18:39:51.766Z,2.90
2023-05-23T18:42:21.337Z,4.33
2023-05-23T18:44:50.889Z,4.30
2023-05-23T18:47:20.544Z,4.93
2023-05-23T18:49:50.133Z,3.90
2023-05-23T18:52:22.322Z,5.20
2023-05-23T18:54:54.004Z,3.50
2023-05-23T18:57:23.580Z,4.40
2023-05-23T18:59:53.498Z,3.90
2023-05-23T19:02:23.174Z,3.90
2023-05-23T19:04:52.838Z,9.60
2023-05-23T19:07:24.986Z,11.20
2023-05-23T19:09:54.497Z,11.40
2023-05-23T19:12:24.090Z,4.13
2023-05-23T19:14:53.716Z,7.10
2023-05-23T19:17:23.324Z,3.20
2023-05-23T19:19:52.952Z,5.97
2023-05-23T19:22:27.706Z,4.33
2023-05-23T19:24:57.706Z,4.10
2023-05-23T19:27:27.264Z,3.43
2023-05-23T19:29:56.845Z,3.40
2023-05-23T19:32:26.462Z,4.63
2023-05-23T19:34:56.658Z,4.97
2023-05-23T19:37:29.032Z,5.30
2023-05-23T19:39:59.097Z,4.90
2023-05-23T19:42:28.641Z,6.03
2023-05-23T19:44:58.342Z,6.20
2023-05-23T19:47:30.166Z,4.30
2023-05-23T19:50:00.571Z,4.80
2023-05-23T19:52:32.746Z,3.93
2023-05-23T19:55:03.656Z,5.80
2023-05-23T19:57:33.898Z,6.50
2023-05-23T20:00:04.105Z,4.00
2023-05-23T20:02:33.764Z,3.53
2023-05-23T20:05:03.339Z,3.90
2023-05-23T20:07:36.519Z,4.10
2023-05-23T20:10:06.818Z,5.47
2023-05-23T20:12:36.402Z,6.17
2023-05-23T20:15:07.766Z,3.93
2023-05-23T20:17:37.865Z,6.20
2023-05-23T20:20:08.997Z,3.80
2023-05-23T20:22:41.387Z,6.10
2023-05-23T20:25:11.675Z,9.40
2023-05-23T20:27:41.229Z,4.00
2023-05-23T20:30:12.609Z,4.27
2023-05-23T20:32:42.804Z,4.77
2023-05-23T20:35:12.496Z,4.13
2023-05-23T20:37:44.646Z,5.70
2023-05-23T20:40:15.166Z,4.87
2023-05-23T20:42:45.215Z,6.33
2023-05-23T20:45:15.629Z,6.87
2023-05-23T20:47:46.508Z,14.57
2023-05-23T20:50:17.592Z,19.73
2023-05-23T20:52:49.688Z,11.40
2023-05-23T20:55:20.405Z,4.83
2023-05-23T20:57:49.909Z,4.70
2023-05-23T21:00:21.700Z,7.63
2023-05-23T21:02:51.709Z,6.47
2023-05-23T21:05:21.521Z,7.40
2023-05-23T21:07:53.691Z,4.80
2023-05-23T21:10:23.283Z,5.07
2023-05-23T21:12:52.843Z,5.97
2023-05-23T21:15:22.768Z,5.20
2023-05-23T21:17:52.590Z,7.60
2023-05-23T21:20:22.637Z,4.53
2023-05-23T21:22:54.768Z,4.60
2023-05-23T21:25:24.375Z,16.70
2023-05-23T21:27:53.975Z,7.23
2023-05-23T21:30:24.529Z,5.87
2023-05-23T21:32:56.010Z,6.63
2023-05-23T21:35:25.679Z,10.23
2023-05-23T21:37:57.976Z,9.20
2023-05-23T21:40:28.078Z,6.30
2023-05-23T21:42:57.701Z,6.50
2023-05-23T21:45:27.336Z,8.93
2023-05-23T21:47:56.940Z,17.93
2023-05-23T21:50:26.574Z,6.23
2023-05-23T21:52:58.728Z,5.10
2023-05-23T21:55:28.349Z,11.67
2023-05-23T21:57:57.876Z,10.67
2023-05-23T22:00:27.522Z,15.23
2023-05-23T22:02:57.175Z,6.90
2023-05-23T22:05:26.877Z,11.10
2023-05-23T22:07:59.052Z,5.33
2023-05-23T22:10:28.714Z,14.67
2023-05-23T22:12:58.453Z,6.10
2023-05-23T22:15:28.052Z,13.13
2023-05-23T22:17:57.760Z,14.20
2023-05-23T22:20:28.090Z,5.80
2023-05-23T22:23:02.330Z,8.73
2023-05-23T22:25:32.722Z,6.43
2023-05-23T22:28:02.285Z,6.47
2023-05-23T22:30:31.907Z,5.53
2023-05-23T22:33:02.032Z,4.97
2023-05-23T22:35:32.252Z,8.70
2023-05-23T22:38:04.415Z,5.40
2023-05-23T22:40:33.972Z,5.30
2023-05-23T22:43:04.290Z,5.30
2023-05-23T22:45:40.472Z,6.27
2023-05-23T22:48:11.585Z,5.53
2023-05-23T22:50:43.311Z,5.37
2023-05-23T22:53:16.958Z,6.80
2023-05-23T22:55:46.494Z,4.33
2023-05-23T22:58:16.167Z,5.00
2023-05-23T23:00:46.367Z,6.70
2023-05-23T23:03:16.556Z,9.20
2023-05-23T23:05:46.583Z,5.00
2023-05-23T23:08:19.563Z,6.97
2023-05-23T23:10:49.332Z,7.13
2023-05-23T23:13:18.889Z,5.90
2023-05-23T23:15:50.424Z,4.23
2023-05-23T23:18:20.014Z,5.90
2023-05-23T23:20:49.693Z,5.40
2023-05-23T23:23:21.856Z,8.37
2023-05-23T23:25:52.679Z,5.90
2023-05-23T23:28:22.918Z,9.10
2023-05-23T23:30:52.509Z,4.80
2023-05-23T23:33:22.048Z,7.00
2023-05-23T23:35:51.963Z,8.33
2023-05-23T23:38:24.108Z,5.83
2023-05-23T23:40:53.725Z,3.87
2023-05-23T23:43:23.295Z,10.27
2023-05-23T23:45:52.870Z,5.23
2023-05-23T23:48:22.429Z,5.40
2023-05-23T23:50:52.032Z,6.03
2023-05-23T23:53:24.201Z,5.80
2023-05-23T23:55:53.813Z,5.90
2023-05-23T23:58:23.326Z,9.13
